Time;durP1;ratioP1;P1;durP2;ratioP2;P2;SDS_P1;SDS_P2;PMS_P1;PMS_P2;Temp;Humidity;BMP_temperature;BMP_pressure;BME280_temperature;BME280_humidity;BME280_pressure;Samples;Min_cycle;Max_cycle;Signal;HPM_P1;HPM_P2
2022/11/11 00:01:22;;;;;;;15.80;2.35;;;13.60;99.90;;;12.46;87.25;102084.22;4972063;28;20117;-85
2022/11/11 00:03:55;;;;;;;15.00;2.60;;;13.60;99.90;;;12.48;87.11;102086.78;4961975;28;20530;-84
2022/11/11 00:06:21;;;;;;;12.35;2.20;;;13.60;99.90;;;12.44;87.73;102080.75;4958098;28;20042;-87
2022/11/11 00:08:48;;;;;;;17.98;2.72;;;13.60;99.90;;;12.48;87.04;102084.13;4968983;28;20031;-84
2022/11/11 00:11:15;;;;;;;14.45;3.70;;;13.60;99.90;;;12.43;87.43;102078.16;4960007;28;20054;-84
2022/11/11 00:13:49;;;;;;;16.38;2.45;;;13.60;99.90;;;12.43;87.39;102086.09;4955038;28;20062;-85
2022/11/11 00:16:17;;;;;;;16.00;2.17;;;13.60;99.90;;;12.44;87.79;102090.44;4985068;28;20725;-84
2022/11/11 00:27:12;;;;;;;14.18;2.30;;;13.60;99.90;;;12.37;87.74;102081.84;4984507;28;20065;-85
2022/11/11 00:29:38;;;;;;;12.35;1.80;;;13.60;99.90;;;12.37;87.09;102083.63;4987149;28;20042;-85
2022/11/11 00:32:27;;;;;;;10.35;1.85;;;13.60;99.90;;;12.40;87.04;102081.78;4962104;28;20066;-86
2022/11/11 00:37:45;;;;;;;14.32;2.90;;;13.60;99.90;;;12.40;87.22;102081.78;4978164;28;20052;-87
2022/11/11 00:40:12;;;;;;;14.10;2.30;;;13.60;99.90;;;12.35;86.93;102077.53;4961931;28;20379;-86
2022/11/11 00:42:40;;;;;;;14.32;2.92;;;13.60;99.90;;;12.42;86.89;102086.97;4984300;28;20046;-84
2022/11/11 00:45:17;;;;;;;8.93;2.17;;;13.60;99.90;;;12.40;86.90;102094.97;4962071;28;20095;-84
2022/11/11 00:53:21;;;;;;;14.50;2.30;;;13.60;99.90;;;12.36;86.15;102101.28;4981241;28;20038;-84
2022/11/11 00:55:47;;;;;;;9.45;2.05;;;13.60;99.90;;;12.38;86.58;102099.44;4976326;28;20034;-85
2022/11/11 00:58:18;;;;;;;20.73;3.10;;;13.60;99.90;;;12.43;86.00;102118.63;4956147;28;20503;-85
2022/11/11 01:00:44;;;;;;;13.35;2.63;;;13.60;99.90;;;12.44;86.15;102103.66;4972451;28;20101;-86
2022/11/11 01:03:10;;;;;;;16.67;3.33;;;13.60;99.90;;;12.40;86.24;102107.34;4963396;28;20112;-85
2022/11/11 01:05:37;;;;;;;14.27;2.78;;;13.60;99.90;;;12.39;86.19;102098.50;4968857;28;20030;-84
2022/11/11 01:08:03;;;;;;;21.13;2.80;;;13.60;99.90;;;12.38;86.64;102103.88;4963820;28;20034;-85
2022/11/11 01:10:36;;;;;;;14.38;2.45;;;13.50;99.90;;;12.34;86.38;102112.81;4963282;28;20180;-85
2022/11/11 01:13:13;;;;;;;17.95;2.85;;;13.60;99.90;;;12.34;86.04;102120.72;4985525;28;20094;-85
2022/11/11 01:15:45;;;;;;;18.52;2.72;;;13.50;99.90;;;12.34;86.70;102129.50;4968549;28;20043;-84
2022/11/11 01:18:19;;;;;;;16.38;2.50;;;13.50;99.90;;;12.30;86.21;102127.88;4978183;28;20026;-84
2022/11/11 01:20:45;;;;;;;16.48;3.05;;;13.50;99.90;;;12.26;86.21;102120.94;4971627;28;20022;-84
2022/11/11 01:23:13;;;;;;;17.73;2.88;;;13.50;99.90;;;12.25;86.59;102116.59;4958851;28;20182;-84
2022/11/11 01:25:46;;;;;;;16.75;3.17;;;13.50;99.90;;;12.23;86.58;102115.78;4971610;28;20034;-85
2022/11/11 01:28:12;;;;;;;10.80;2.22;;;13.40;99.90;;;12.19;86.75;102119.44;4970491;28;20026;-84
2022/11/11 01:30:38;;;;;;;15.82;2.28;;;13.40;99.90;;;12.15;86.62;102112.50;4978166;28;20112;-84
2022/11/11 01:33:03;;;;;;;17.83;2.40;;;13.40;99.90;;;12.15;87.51;102126.56;4974011;28;20031;-83
2022/11/11 01:35:29;;;;;;;14.57;2.53;;;13.40;99.90;;;12.14;87.07;102132.78;4979718;28;20030;-85
2022/11/11 01:38:02;;;;;;;14.35;2.75;;;13.40;99.90;;;12.18;87.38;102138.81;4969889;28;20057;-84
2022/11/11 01:40:29;;;;;;;20.13;3.15;;;13.30;99.90;;;12.13;87.50;102135.44;4958935;28;20023;-84
2022/11/11 01:43:07;;;;;;;12.23;2.47;;;13.30;99.90;;;12.13;87.40;102132.81;4977023;28;20027;-84
2022/11/11 01:46:03;;;;;;;18.25;2.42;;;13.30;99.90;;;12.09;87.19;102121.47;4976066;28;20022;-84
2022/11/11 01:51:43;;;;;;;19.13;3.13;;;13.20;99.90;;;12.03;87.51;102130.47;4977626;28;21316;-85
2022/11/11 01:54:41;;;;;;;17.73;3.05;;;13.30;99.90;;;12.00;87.67;102129.69;4981727;28;20030;-84
2022/11/11 01:57:21;;;;;;;13.68;2.42;;;13.20;99.90;;;12.01;87.69;102132.28;4969184;28;20121;-82
2022/11/11 02:00:02;;;;;;;21.13;3.28;;;13.20;99.90;;;11.99;87.35;102128.81;4969186;28;20534;-84
2022/11/11 02:02:52;;;;;;;15.00;2.70;;;13.20;99.90;;;11.99;87.29;102136.75;4988200;28;20030;-83
2022/11/11 02:08:31;;;;;;;14.82;2.97;;;13.20;99.90;;;11.98;87.28;102139.41;4973301;28;20038;-83
2022/11/11 02:14:34;;;;;;;13.70;2.72;;;13.20;99.90;;;11.95;87.45;102147.44;4966297;28;20033;-84
2022/11/11 02:16:48;;;;;;;12.38;3.20;;;13.20;99.90;;;11.96;87.52;102134.19;4987688;28;20069;-84
2022/11/11 02:19:22;;;;;;;16.77;2.88;;;13.20;99.90;;;11.96;86.92;102130.69;4961734;28;20034;-84
2022/11/11 02:22:00;;;;;;;15.43;2.97;;;13.10;99.90;;;11.95;87.06;102129.81;4975693;28;20030;-83
2022/11/11 02:24:28;;;;;;;13.95;3.63;;;13.10;99.90;;;11.92;87.09;102113.19;4981330;28;20031;-85
2022/11/11 02:26:56;;;;;;;16.83;2.97;;;13.10;99.90;;;11.88;87.29;102093.97;4961647;28;20494;-85
2022/11/11 02:29:23;;;;;;;14.32;3.03;;;13.10;99.90;;;11.86;87.38;102101.91;4964816;28;20034;-84
2022/11/11 02:31:55;;;;;;;17.45;3.30;;;13.10;99.90;;;11.81;87.73;102090.59;4953462;28;20030;-85
2022/11/11 02:34:37;;;;;;;16.20;3.22;;;13.10;99.90;;;11.76;87.60;102073.19;4969895;28;20033;-84
2022/11/11 02:37:07;;;;;;;17.25;3.22;;;13.00;99.90;;;11.77;87.70;102074.91;4958371;28;20386;-84
2022/11/11 02:39:41;;;;;;;16.25;3.15;;;13.00;99.90;;;11.71;87.71;102081.25;4983747;28;20037;-84
2022/11/11 02:42:09;;;;;;;18.33;3.58;;;13.00;99.90;;;11.73;87.26;102099.66;4960749;28;20438;-83
2022/11/11 02:44:41;;;;;;;16.50;3.63;;;13.00;99.90;;;11.75;87.68;102108.38;4956057;28;20041;-84
2022/11/11 02:47:07;;;;;;;16.42;3.50;;;12.90;99.90;;;11.72;87.74;102098.78;4972768;28;20620;-84
2022/11/11 02:49:33;;;;;;;18.17;3.22;;;12.90;99.90;;;11.68;88.12;102087.50;4973550;28;20041;-84
2022/11/11 02:51:59;;;;;;;20.90;3.60;;;12.90;99.90;;;11.67;87.69;102085.75;4985038;28;20121;-84
2022/11/11 02:54:24;;;;;;;16.92;2.78;;;12.90;99.90;;;11.67;87.75;102082.25;4964410;28;20042;-84
2022/11/11 02:57:06;;;;;;;18.05;3.75;;;12.90;99.90;;;11.66;87.80;102101.59;4957928;28;20022;-85
2022/11/11 02:59:37;;;;;;;19.88;3.70;;;12.90;99.90;;;11.70;87.78;102112.06;4961376;28;20522;-85
2022/11/11 03:02:04;;;;;;;20.17;3.47;;;12.90;99.90;;;11.65;87.78;102103.38;4972152;28;20031;-86
2022/11/11 03:04:30;;;;;;;13.93;3.58;;;12.90;99.90;;;11.65;87.49;102103.38;4964275;28;20031;-84
2022/11/11 03:06:56;;;;;;;14.27;3.10;;;12.90;99.90;;;11.64;87.65;102108.69;4957816;28;20080;-84
2022/11/11 03:09:22;;;;;;;17.23;3.72;;;12.90;99.90;;;11.65;87.99;102108.66;4962398;28;20042;-85
2022/11/11 03:11:56;;;;;;;11.43;2.88;;;12.80;99.90;;;11.63;88.08;102099.94;4951127;28;20041;-83
2022/11/11 03:14:22;;;;;;;23.02;4.00;;;12.80;99.90;;;11.61;87.38;102106.16;4959376;28;20022;-84
2022/11/11 03:19:37;;;;;;;14.05;3.55;;;12.80;99.90;;;11.60;87.83;102110.59;4975303;28;20045;-84
2022/11/11 03:22:03;;;;;;;11.95;3.72;;;12.80;99.90;;;11.58;87.69;102112.41;4959721;28;20053;-85
2022/11/11 03:27:14;;;;;;;21.65;5.68;;;12.80;99.90;;;11.55;87.60;102123.03;4971580;28;20049;-85
2022/11/11 03:29:49;;;;;;;21.90;4.00;;;12.80;99.90;;;11.57;88.16;102130.91;4954448;28;20113;-85
2022/11/11 03:32:15;;;;;;;16.17;3.38;;;12.70;99.90;;;11.54;87.85;102131.84;4971864;28;20038;-84
2022/11/11 03:34:41;;;;;;;19.63;3.95;;;12.70;99.90;;;11.55;88.06;102130.09;4957702;28;20030;-84
2022/11/11 03:40:02;;;;;;;14.15;3.47;;;12.70;99.90;;;11.52;88.08;102138.94;4976714;28;20105;-84
2022/11/11 03:42:36;;;;;;;17.70;3.75;;;12.70;99.90;;;11.53;88.19;102137.16;4977485;28;20026;-85
2022/11/11 03:45:02;;;;;;;12.43;3.38;;;12.70;99.90;;;11.47;87.58;102143.50;4966721;28;20031;-83
2022/11/11 03:47:27;;;;;;;17.95;4.60;;;12.70;99.90;;;11.49;88.53;102134.63;4963459;28;20447;-83
2022/11/11 03:49:53;;;;;;;24.10;4.13;;;12.70;99.90;;;11.48;88.37;102135.53;4956267;28;20087;-84
2022/11/11 03:52:19;;;;;;;18.95;3.88;;;12.70;99.90;;;11.49;87.86;102125.84;4966609;28;20435;-84
2022/11/11 03:54:50;;;;;;;15.98;3.63;;;12.70;99.90;;;11.45;88.17;102117.16;4964097;28;20166;-84
2022/11/11 03:57:31;;;;;;;14.93;4.00;;;12.70;99.90;;;11.45;88.31;102111.03;4970612;28;20037;-84
2022/11/11 03:59:58;;;;;;;20.27;4.55;;;12.60;99.90;;;11.41;88.40;102102.31;5021539;23;20150;-83
2022/11/11 04:10:37;;;;;;;20.42;5.22;;;12.60;99.90;;;11.34;89.00;102110.44;5003391;28;20065;-84
2022/11/11 04:16:11;;;;;;;17.27;5.10;;;12.60;99.90;;;11.37;88.93;102126.19;4987266;28;20508;-86
2022/11/11 04:26:58;;;;;;;20.85;5.20;;;12.50;99.90;;;11.35;89.13;102120.09;4991758;28;20041;-85
2022/11/11 04:29:33;;;;;;;17.30;5.50;;;12.50;99.90;;;11.30;89.27;102117.59;4989130;28;20045;-86
2022/11/11 04:35:06;;;;;;;16.05;5.57;;;12.50;99.90;;;11.28;89.34;102108.84;4991520;28;20128;-85
2022/11/11 04:37:35;;;;;;;20.45;6.47;;;12.50;99.90;;;11.27;89.42;102108.00;4970779;28;20035;-83
2022/11/11 04:42:51;;;;;;;15.90;5.30;;;12.50;99.90;;;11.30;88.92;102112.31;5004354;28;20146;-84
2022/11/11 04:45:34;;;;;;;19.05;5.60;;;12.50;99.90;;;11.29;89.81;102114.09;4997740;28;20054;-83
2022/11/11 04:48:12;;;;;;;17.33;5.45;;;12.50;99.90;;;11.30;89.24;102117.59;4984013;28;20030;-84
2022/11/11 04:50:43;;;;;;;14.63;4.63;;;12.50;99.90;;;11.33;88.94;102109.56;4971585;28;20491;-85
2022/11/11 04:53:14;;;;;;;17.77;5.60;;;12.60;99.90;;;11.35;89.09;102109.53;4962172;28;20035;-85
2022/11/11 04:58:34;;;;;;;21.38;5.30;;;12.50;99.90;;;11.30;89.79;102112.31;4988562;28;20574;-83
2022/11/11 05:01:00;;;;;;;17.45;4.95;;;12.50;99.90;;;11.28;89.68;102114.97;4971865;28;20042;-83
2022/11/11 05:03:26;;;;;;;19.10;5.78;;;12.60;99.90;;;11.29;89.84;102127.28;4998847;28;20037;-84
2022/11/11 05:08:57;;;;;;;18.80;5.20;;;12.50;99.90;;;11.29;90.04;102118.47;5002386;28;20549;-84
2022/11/11 05:11:38;;;;;;;20.67;5.65;;;12.50;99.90;;;11.26;90.23;102122.06;4972604;28;20037;-84
2022/11/11 05:22:42;;;;;;;19.17;5.70;;;12.50;99.90;;;11.26;89.82;102115.94;5008572;28;20118;-85
2022/11/11 05:28:11;;;;;;;18.00;5.07;;;12.50;99.90;;;11.25;90.05;102109.81;4999393;28;20042;-84
2022/11/11 05:30:40;;;;;;;16.70;5.20;;;12.50;99.90;;;11.30;90.77;102117.59;5013481;28;20083;-83
2022/11/11 05:33:06;;;;;;;18.52;5.00;;;12.50;99.90;;;11.30;90.16;102125.50;4997056;28;20121;-84
2022/11/11 05:35:40;;;;;;;16.25;5.50;;;12.50;99.90;;;11.29;90.24;102121.13;4997096;28;20049;-85
2022/11/11 05:38:21;;;;;;;17.02;5.55;;;12.50;99.90;;;11.29;90.25;102118.47;5014396;28;20134;-84
2022/11/11 05:40:47;;;;;;;17.85;5.80;;;12.50;99.90;;;11.28;90.54;102114.13;5010876;28;20033;-83
2022/11/11 05:43:13;;;;;;;17.15;5.85;;;12.50;99.90;;;11.27;90.55;102105.34;4997542;28;20117;-84
2022/11/11 05:45:48;;;;;;;17.02;5.75;;;12.50;99.90;;;11.28;90.83;102112.34;4996592;28;20034;-84
2022/11/11 05:48:14;;;;;;;15.68;5.07;;;12.50;99.90;;;11.29;91.20;102103.53;5020179;28;20514;-85
2022/11/11 05:50:41;;;;;;;16.63;5.13;;;12.50;99.90;;;11.32;90.48;102105.22;4995490;28;20049;-84
2022/11/11 05:53:07;;;;;;;19.15;6.13;;;12.50;99.90;;;11.29;90.54;102111.47;5014221;28;20113;-84
2022/11/11 05:55:43;;;;;;;22.13;5.35;;;;;;;11.27;90.55;102118.53;5003686;28;20029;-84
2022/11/11 05:58:17;;;;;;;25.88;6.47;;;12.50;99.90;;;11.25;91.08;102109.81;5022167;28;20049;-83
2022/11/11 06:00:43;;;;;;;20.88;5.97;;;12.50;99.90;;;11.22;91.02;102099.31;5021375;23;20065;-84
2022/11/11 06:03:09;;;;;;;12.30;5.35;;;12.50;99.90;;;11.19;91.03;102107.34;4999452;28;20395;-84
2022/11/11 06:05:38;;;;;;;16.67;5.30;;;12.40;99.90;;;11.19;91.48;102093.28;5000696;28;20062;-84
2022/11/11 06:08:12;;;;;;;17.80;5.88;;;12.40;99.90;;;11.19;91.39;102109.13;5000169;28;20040;-85
2022/11/11 06:10:38;;;;;;;13.15;5.43;;;12.40;99.90;;;11.21;91.47;102110.78;5013764;28;20026;-83
2022/11/11 06:13:06;;;;;;;16.73;5.18;;;12.40;99.90;;;11.19;91.04;102115.25;4996767;28;20029;-84
2022/11/11 06:15:39;;;;;;;17.95;5.47;;;12.40;99.90;;;11.22;91.38;102119.56;5017286;28;20109;-86
2022/11/11 06:18:06;;;;;;;19.25;6.60;;;12.50;99.90;;;11.19;91.13;102114.38;4995724;28;20068;-84
2022/11/11 06:20:35;;;;;;;15.65;5.50;;;12.40;99.90;;;11.16;91.28;102120.56;4996244;28;20033;-86
2022/11/11 06:23:07;;;;;;;17.23;6.03;;;12.40;99.90;;;11.21;91.45;102126.63;5000094;28;20026;-86
2022/11/11 06:28:18;;;;;;;19.55;6.38;;;12.40;99.90;;;11.22;91.40;102135.38;5007576;28;20095;-84
2022/11/11 06:30:50;;;;;;;25.38;6.60;;;12.40;99.90;;;11.19;91.86;102123.16;4996769;28;20034;-84
2022/11/11 06:33:17;;;;;;;20.30;6.50;;;12.40;99.90;;;11.19;91.62;102130.22;4998515;28;20538;-83
2022/11/11 06:35:44;;;;;;;17.67;6.15;;;12.40;99.90;;;11.14;91.59;102132.94;5013926;28;20030;-84
2022/11/11 06:38:10;;;;;;;25.58;6.45;;;12.40;99.90;;;11.15;91.98;102136.47;5000150;28;20025;-84
2022/11/11 06:40:44;;;;;;;19.13;5.43;;;12.40;99.90;;;11.17;92.29;102130.22;5030553;23;20060;-84
2022/11/11 06:43:11;;;;;;;21.50;6.10;;;12.40;99.90;;;11.14;92.47;102145.25;5008922;28;20056;-84
2022/11/11 06:45:37;;;;;;;17.48;5.85;;;12.40;99.90;;;11.16;92.29;102144.31;5006399;28;20048;-84
2022/11/11 06:48:11;;;;;;;17.00;5.35;;;12.40;99.90;;;11.18;92.08;102139.84;5001571;28;20022;-85
2022/11/11 06:50:37;;;;;;;16.75;5.60;;;12.40;99.90;;;11.16;92.32;102157.50;5001495;28;20038;-84
2022/11/11 06:53:31;;;;;;;20.55;6.28;;;12.40;99.90;;;11.16;92.32;102165.41;5010341;28;20036;-85
2022/11/11 06:55:57;;;;;;;19.27;5.80;;;12.40;99.90;;;11.13;92.83;102162.00;4998524;28;20022;-82
2022/11/11 06:58:24;;;;;;;26.33;6.03;;;12.40;99.90;;;11.13;92.65;102164.63;4995332;28;20041;-84
2022/11/11 07:00:50;;;;;;;15.23;5.55;;;12.40;99.90;;;11.13;92.54;102162.84;5013378;23;20038;-83
2022/11/11 07:03:25;;;;;;;20.58;6.05;;;12.30;99.90;;;11.14;92.46;102164.56;4996602;28;20023;-83
2022/11/11 07:05:51;;;;;;;21.45;6.10;;;12.40;99.90;;;11.13;92.29;102172.53;4995559;28;20030;-85
2022/11/11 07:08:18;;;;;;;19.75;5.47;;;12.30;99.90;;;11.10;93.01;102170.84;4992958;28;20436;-84
2022/11/11 07:10:49;;;;;;;17.33;5.72;;;12.30;99.90;;;11.08;92.93;102170.03;4993197;28;20076;-86
2022/11/11 07:13:15;;;;;;;19.33;5.80;;;12.40;99.90;;;11.08;92.56;102173.53;4987142;28;20031;-84
2022/11/11 07:15:42;;;;;;;18.02;5.65;;;12.30;99.90;;;11.11;92.59;102167.31;4989593;28;20081;-84
2022/11/11 07:18:09;;;;;;;24.45;6.05;;;12.40;99.90;;;11.12;92.70;102165.53;4990727;28;20019;-85
2022/11/11 07:20:37;;;;;;;8.52;3.58;;;12.30;99.90;;;11.15;92.32;102171.59;4988160;28;20031;-84
2022/11/11 07:23:06;;;;;;;10.80;3.67;;;12.30;99.90;;;11.13;92.20;102173.41;4981137;28;20041;-84
2022/11/11 07:25:32;;;;;;;8.18;2.75;;;12.30;99.90;;;11.13;92.53;102177.81;4978718;28;20042;-84
2022/11/11 07:27:59;;;;;;;11.85;3.70;;;12.30;99.90;;;11.15;92.14;102182.13;4972933;28;20488;-83
2022/11/11 07:30:25;;;;;;;9.85;3.22;;;12.30;99.90;;;11.08;92.36;102181.44;4974637;28;20038;-83
2022/11/11 07:33:01;;;;;;;6.95;2.67;;;12.30;99.90;;;11.08;92.91;102178.78;4979977;28;20034;-85
2022/11/11 07:35:27;;;;;;;8.87;2.63;;;12.30;99.90;;;11.10;92.08;102181.41;4965885;28;20113;-88
2022/11/11 07:37:55;;;;;;;10.57;3.03;;;12.30;99.90;;;11.13;92.40;102183.09;4978292;28;20270;-86
2022/11/11 07:40:30;;;;;;;11.30;3.08;;;12.30;99.90;;;11.12;92.57;102186.59;5035335;23;20047;-85
2022/11/11 07:43:06;;;;;;;;;;;;;;;;;;;;;
2022/11/11 07:45:32;;;;;;;9.43;2.97;;;12.30;99.90;;;11.13;92.45;102193.63;4996972;28;20090;-86
2022/11/11 07:47:59;;;;;;;11.25;2.85;;;;;;;11.13;92.83;102205.03;4965675;28;20030;-83
2022/11/11 07:50:24;;;;;;;8.40;2.65;;;12.30;99.90;;;11.11;92.61;102205.97;4978529;28;20037;-82
2022/11/11 07:52:50;;;;;;;12.85;3.58;;;12.30;99.90;;;11.13;92.42;102209.44;4973522;28;20026;-85
2022/11/11 07:55:22;;;;;;;7.97;3.13;;;12.40;99.90;;;11.12;92.71;102195.38;4972317;28;20609;-84
2022/11/11 07:57:52;;;;;;;10.80;2.70;;;12.30;99.90;;;11.14;92.89;102208.53;4972848;28;20041;-83
2022/11/11 08:00:25;;;;;;;4.90;2.22;;;12.30;99.90;;;11.15;92.35;102211.13;4978369;28;20124;-83
2022/11/11 08:02:51;;;;;;;13.02;3.38;;;12.40;99.90;;;11.14;92.81;102206.75;4959816;28;20023;-83
2022/11/11 08:05:17;;;;;;;11.23;2.72;;;12.40;99.90;;;11.15;92.98;102211.13;4974340;28;20570;-84
2022/11/11 08:07:43;;;;;;;3.92;2.30;;;12.40;99.90;;;11.21;92.58;102210.09;4973168;28;20102;-86
2022/11/11 08:10:10;;;;;;;5.32;2.42;;;12.40;99.90;;;11.26;92.18;102221.41;4968901;28;20045;-84
2022/11/11 08:15:55;;;;;;;4.93;2.17;;;12.40;99.90;;;11.29;92.06;102235.38;4979986;28;20031;-85
2022/11/11 08:18:20;;;;;;;10.40;2.85;;;12.40;99.90;;;11.25;92.81;102230.22;4970804;28;20034;-84
2022/11/11 08:20:46;;;;;;;16.25;2.85;;;12.50;99.90;;;11.29;92.09;102234.50;4962052;28;20420;-84
2022/11/11 08:23:22;;;;;;;12.32;2.85;;;12.50;99.90;;;11.35;92.16;102241.41;4976340;28;20110;-86
2022/11/11 08:25:48;;;;;;;8.32;1.75;;;12.50;99.90;;;11.33;93.01;102233.53;4982774;28;20034;-83
2022/11/11 08:28:14;;;;;;;6.13;1.70;;;12.50;99.90;;;11.34;92.89;102242.28;4964159;28;20035;-87
2022/11/11 08:30:39;;;;;;;6.13;1.50;;;12.50;99.90;;;11.33;92.56;102243.22;4976463;28;20026;-87
2022/11/11 08:33:05;;;;;;;7.18;1.70;;;12.50;99.90;;;11.32;92.93;102249.38;4965127;28;20069;-85
2022/11/11 08:35:37;;;;;;;5.55;2.88;;;12.50;99.90;;;11.36;92.74;102257.19;4970717;28;20030;-84
2022/11/11 08:38:03;;;;;;;13.10;2.20;;;12.60;99.90;;;11.36;92.61;102245.75;4975013;28;20038;-85
2022/11/11 08:40:28;;;;;;;10.02;2.13;;;12.60;99.90;;;11.40;92.39;102247.41;4956461;28;20030;-84
2022/11/11 08:42:58;;;;;;;8.68;2.17;;;12.60;99.90;;;11.43;92.57;102247.34;4973748;28;20411;-83
2022/11/11 08:45:29;;;;;;;11.50;2.30;;;12.60;99.90;;;11.47;92.28;102254.28;4982228;28;20019;-84
2022/11/11 08:47:55;;;;;;;10.02;2.10;;;12.60;99.90;;;11.44;92.13;102254.34;4959825;28;20030;-85
2022/11/11 08:50:24;;;;;;;9.40;2.35;;;;;;;11.44;92.47;102249.06;4972144;28;20041;-84
2022/11/11 08:52:51;;;;;;;5.80;2.38;;;12.60;99.90;;;11.45;92.05;102262.22;4983312;28;20042;-84
2022/11/11 08:55:24;;;;;;;10.15;1.95;;;12.60;99.90;;;11.47;92.19;102263.06;4980278;28;20038;-84
2022/11/11 08:58:06;;;;;;;4.15;2.17;;;12.70;99.90;;;11.48;92.23;102261.28;4980510;28;20027;-85
2022/11/11 09:00:33;;;;;;;10.40;2.58;;;12.70;99.90;;;11.50;92.32;102262.09;4979288;28;20094;-85
2022/11/11 09:03:24;;;;;;;6.53;1.80;;;12.70;99.90;;;11.56;91.84;102261.09;4964775;28;20046;-84
2022/11/11 09:05:52;;;;;;;6.13;1.35;;;12.70;99.90;;;11.59;91.28;102258.34;4973679;28;20046;-85
2022/11/11 09:11:08;;;;;;;8.35;1.92;;;12.80;99.90;;;11.67;91.33;102259.03;4980836;28;20038;-83
2022/11/11 09:13:37;;;;;;;3.60;1.38;;;;;;;11.67;91.54;102254.59;4962492;28;20057;-85
2022/11/11 09:16:12;;;;;;;5.15;1.70;;;12.80;99.90;;;11.69;91.28;102259.84;4976165;28;20026;-85
2022/11/11 09:18:41;;;;;;;3.38;1.30;;;12.90;99.90;;;11.73;91.10;102264.16;4977345;28;20042;-83
2022/11/11 09:21:07;;;;;;;9.98;2.13;;;12.90;99.90;;;11.74;90.78;102263.22;4978796;28;20043;-85
2022/11/11 09:23:42;;;;;;;7.43;2.30;;;12.90;99.90;;;11.80;90.63;102270.13;4968179;28;20126;-85
2022/11/11 09:26:09;;;;;;;12.88;2.70;;;13.00;99.90;;;11.81;90.66;102272.69;4978695;28;20105;-84
2022/11/11 09:28:44;;;;;;;4.18;2.00;;;13.00;99.90;;;11.85;90.85;102282.25;4976569;28;20043;-84
2022/11/11 09:31:16;;;;;;;10.50;1.50;;;13.00;99.90;;;11.88;90.83;102279.59;4977526;28;20107;-84
2022/11/11 09:33:53;;;;;;;3.28;2.13;;;;;;;11.92;90.69;102283.00;4973875;28;21317;-85
2022/11/11 09:36:29;;;;;;;10.38;2.00;;;13.10;99.90;;;11.93;90.59;102281.25;4972473;28;20061;-83
2022/11/11 09:39:11;;;;;;;9.80;3.45;;;13.10;99.90;;;11.96;90.48;102287.28;4986437;28;20035;-84
2022/11/11 09:42:16;;;;;;;7.20;2.08;;;13.10;99.90;;;11.98;90.23;102295.16;4962148;28;20120;-84
2022/11/11 09:45:14;;;;;;;5.68;2.42;;;13.20;99.90;;;12.00;90.25;102294.22;4989271;28;20084;-85
2022/11/11 09:48:10;;;;;;;3.63;1.30;;;13.20;99.90;;;12.02;89.95;102302.97;4998238;28;20045;-85
2022/11/11 09:50:54;;;;;;;5.90;1.92;;;13.10;99.90;;;12.02;90.11;102300.31;4975485;28;20050;-84
2022/11/11 09:54:04;;;;;;;5.40;1.58;;;13.20;99.90;;;12.05;90.44;102309.91;4967885;28;20476;-85
2022/11/11 09:56:32;;;;;;;5.72;1.70;;;13.20;99.90;;;12.01;90.06;102308.31;4911550;28;21322;-85
2022/11/11 09:59:54;;;;;;;6.70;2.17;;;13.20;99.90;;;12.09;89.84;102315.09;4981725;28;20085;-82
2022/11/11 10:02:56;;;;;;;8.57;2.13;;;13.20;99.90;;;12.16;89.85;102322.81;4892226;28;20048;-80
2022/11/11 10:05:57;;;;;;;11.70;1.90;;;13.30;99.90;;;12.20;89.70;102320.09;4968334;28;20623;-80
2022/11/11 10:08:41;;;;;;;10.38;1.92;;;13.30;99.90;;;12.21;89.53;102319.16;4987709;28;20069;-82
2022/11/11 10:11:56;;;;;;;9.45;2.97;;;13.30;99.90;;;12.25;89.23;102320.81;4955837;28;20403;-80
2022/11/11 10:14:35;;;;;;;12.88;3.67;;;13.40;99.90;;;12.25;89.36;102309.38;4988536;28;20041;-81
2022/11/11 10:17:39;;;;;;;6.50;2.50;;;13.40;99.90;;;12.27;88.87;102316.34;4974264;28;20414;-82
2022/11/11 10:20:17;;;;;;;7.85;2.65;;;13.40;99.90;;;12.34;88.70;102316.19;4973229;28;20043;-79
2022/11/11 10:22:50;;;;;;;7.53;2.17;;;13.50;99.90;;;12.30;88.63;102318.91;4969889;28;20529;-83
2022/11/11 10:25:27;;;;;;;7.72;2.38;;;13.40;99.90;;;12.36;88.94;102311.72;4971785;28;20496;-80
2022/11/11 10:28:00;;;;;;;12.10;1.92;;;13.50;99.90;;;12.45;88.66;102316.72;4972214;28;20094;-83
2022/11/11 10:30:38;;;;;;;5.22;1.85;;;13.50;99.90;;;12.51;88.13;102320.06;4964232;28;20495;-81
2022/11/11 10:33:19;;;;;;;10.98;3.20;;;13.60;99.90;;;12.61;88.25;102319.78;4969967;28;20057;-82
2022/11/11 10:35:50;;;;;;;10.82;2.83;;;13.70;99.90;;;12.64;88.00;102327.63;4954538;28;20034;-81
2022/11/11 10:38:49;;;;;;;6.30;2.50;;;13.70;99.90;;;12.65;87.07;102334.63;4971890;28;20062;-81
2022/11/11 10:41:51;;;;;;;4.25;1.70;;;13.70;99.90;;;12.68;87.52;102345.13;4970946;28;20030;-82
2022/11/11 10:44:33;;;;;;;8.63;2.25;;;13.80;99.90;;;12.72;87.85;102341.47;4992814;28;20078;-80
2022/11/11 10:47:14;;;;;;;4.13;1.77;;;13.80;99.90;;;12.73;87.78;102337.91;4950990;28;20057;-82
2022/11/11 10:50:18;;;;;;;6.22;2.75;;;13.80;99.90;;;12.74;87.36;102350.22;4991537;28;20030;-84
2022/11/11 10:53:32;;;;;;;3.33;2.13;;;13.80;99.90;;;12.75;87.44;102338.75;4982524;28;20038;-84
2022/11/11 10:56:26;;;;;;;14.68;3.55;;;13.80;99.90;;;12.68;87.15;102339.84;4978908;28;20039;-82
2022/11/11 10:59:25;;;;;;;9.30;2.92;;;13.80;99.90;;;12.69;87.66;102345.06;4965490;28;20026;-85
2022/11/11 11:02:40;;;;;;;8.32;2.60;;;13.80;99.90;;;12.64;87.61;102354.91;4970597;28;20026;-82
2022/11/11 11:05:52;;;;;;;9.25;1.83;;;13.80;99.90;;;12.59;88.18;102350.66;4975103;28;20038;-82
2022/11/11 11:08:29;;;;;;;6.30;2.15;;;13.80;99.90;;;12.60;88.39;102357.69;4986422;28;20070;-83
2022/11/11 11:11:15;;;;;;;7.80;1.63;;;13.70;99.90;;;12.60;87.88;102355.91;5002288;23;20513;-83
2022/11/11 11:14:18;;;;;;;9.60;2.10;;;13.70;99.90;;;12.51;88.16;102353.53;4969736;28;20022;-83
2022/11/11 11:16:54;;;;;;;6.60;1.88;;;13.70;99.90;;;12.54;88.70;102357.88;4983582;28;20038;-83
2022/11/11 11:19:27;;;;;;;7.10;2.22;;;13.70;99.90;;;12.54;88.65;102357.88;4984884;28;20034;-84
2022/11/11 11:22:02;;;;;;;14.95;2.40;;;13.70;99.90;;;12.50;89.00;102363.25;4984535;23;20053;-83
2022/11/11 11:24:31;;;;;;;12.63;2.90;;;13.70;99.90;;;12.56;89.54;102358.69;4992828;28;20034;-82
2022/11/11 11:27:06;;;;;;;19.20;2.03;;;13.70;99.90;;;12.59;89.24;102356.84;4996816;28;20069;-84
2022/11/11 11:29:34;;;;;;;3.47;1.85;;;13.70;99.90;;;12.54;89.30;102360.50;4988469;28;20050;-83
2022/11/11 11:32:30;;;;;;;10.90;2.17;;;13.70;99.90;;;12.61;89.03;102355.03;4992163;28;20037;-82
2022/11/11 11:34:56;;;;;;;12.57;2.58;;;13.70;99.90;;;12.58;89.46;102359.50;4978126;28;20039;-82
2022/11/11 11:37:46;;;;;;;12.73;5.43;;;13.70;99.90;;;12.63;88.84;102357.59;4969173;28;20059;-82
2022/11/11 11:40:12;;;;;;;15.13;5.18;;;13.70;99.90;;;12.59;89.01;102356.84;4963683;28;20057;-83
2022/11/11 11:42:38;;;;;;;16.75;5.65;;;13.70;99.90;;;12.64;89.27;102362.84;4959021;28;20023;-82
2022/11/11 11:45:31;;;;;;;18.13;5.07;;;13.70;99.90;;;12.68;88.78;102361.84;4959219;28;20038;-83
2022/11/11 11:48:54;;;;;;;16.23;4.93;;;13.80;99.90;;;12.68;89.00;102364.50;4954738;28;20105;-83
2022/11/11 11:51:27;;;;;;;17.23;4.88;;;13.80;99.90;;;12.69;88.96;102371.50;4969183;28;20072;-84
2022/11/11 11:54:14;;;;;;;14.02;4.88;;;13.80;99.90;;;12.69;89.26;102366.22;4972768;28;20088;-83
2022/11/11 11:56:49;;;;;;;15.80;4.85;;;13.80;99.90;;;12.69;89.66;102370.63;4972329;28;20030;-85
2022/11/11 11:59:22;;;;;;;20.50;5.22;;;13.70;99.90;;;12.63;89.73;102363.75;4980072;28;20037;-82
2022/11/11 12:02:02;;;;;;;12.32;4.30;;;13.80;99.90;;;12.59;89.78;102370.06;4961695;28;20869;-83
2022/11/11 12:04:33;;;;;;;13.07;4.38;;;13.80;99.90;;;12.60;90.07;102369.13;4990634;28;20027;-82